createdAt,value
2018-10-03T00:00:40.730Z,4.10
2018-10-03T00:03:08.157Z,3.93
2018-10-03T00:05:35.402Z,4.13
2018-10-03T00:08:02.637Z,4.03
2018-10-03T00:10:30.010Z,3.73
2018-10-03T00:12:57.289Z,4.50
2018-10-03T00:15:24.983Z,3.43
2018-10-03T00:17:52.784Z,3.90
2018-10-03T00:20:20.150Z,4.33
2018-10-03T00:22:47.404Z,3.83
2018-10-03T00:25:14.690Z,3.80
2018-10-03T00:27:41.996Z,4.30
2018-10-03T00:30:09.438Z,3.57
2018-10-03T00:32:36.848Z,3.50
2018-10-03T00:35:04.062Z,3.90
2018-10-03T00:37:31.322Z,3.63
2018-10-03T00:39:59.145Z,4.20
2018-10-03T00:42:26.706Z,3.50
2018-10-03T00:44:54.225Z,3.60
2018-10-03T00:47:22.118Z,3.90
2018-10-03T00:49:49.470Z,3.97
2018-10-03T00:52:16.736Z,3.57
2018-10-03T00:54:50.528Z,3.60
2018-10-03T00:57:28.964Z,3.80
2018-10-03T01:00:04.769Z,3.57
2018-10-03T01:02:40.186Z,3.47
2018-10-03T01:05:11.695Z,3.83
2018-10-03T01:07:40.990Z,4.20
2018-10-03T01:10:08.369Z,3.50
2018-10-03T01:12:35.568Z,3.30
2018-10-03T01:15:02.750Z,3.73
2018-10-03T01:17:30.025Z,3.40
2018-10-03T01:19:57.239Z,3.70
2018-10-03T01:22:24.414Z,4.17
2018-10-03T01:24:51.607Z,2.97
2018-10-03T01:27:18.833Z,3.57
2018-10-03T01:29:46.022Z,3.83
2018-10-03T01:32:13.213Z,3.83
2018-10-03T01:34:40.522Z,3.27
2018-10-03T01:37:07.705Z,3.80
2018-10-03T01:39:34.907Z,3.00
2018-10-03T01:42:02.156Z,3.13
2018-10-03T01:44:29.373Z,3.80
2018-10-03T01:46:56.605Z,3.40
2018-10-03T01:49:23.857Z,3.73
2018-10-03T01:51:51.029Z,4.13
2018-10-03T01:54:18.206Z,3.63
2018-10-03T01:56:45.457Z,3.47
2018-10-03T01:59:12.855Z,3.67
2018-10-03T02:01:40.162Z,3.60
2018-10-03T02:04:08.340Z,4.00
2018-10-03T02:06:35.698Z,3.30
2018-10-03T02:09:04.827Z,3.63
2018-10-03T02:11:32.226Z,3.47
2018-10-03T02:13:59.630Z,3.50
2018-10-03T02:16:28.368Z,3.17
2018-10-03T02:19:00.414Z,3.70
2018-10-03T02:21:28.098Z,3.60
2018-10-03T02:23:55.370Z,3.40
2018-10-03T02:26:23.826Z,4.20
2018-10-03T02:28:52.168Z,3.60
2018-10-03T02:31:19.529Z,3.33
2018-10-03T02:33:47.217Z,3.30
2018-10-03T02:36:14.529Z,4.03
2018-10-03T02:38:42.109Z,3.70
2018-10-03T02:41:09.619Z,3.63
2018-10-03T02:43:37.675Z,3.47
2018-10-03T02:46:05.267Z,3.53
2018-10-03T02:48:32.627Z,3.37
2018-10-03T02:50:59.858Z,3.90
2018-10-03T02:53:27.092Z,3.63
2018-10-03T02:55:54.435Z,4.40
2018-10-03T02:58:21.705Z,3.33
2018-10-03T03:00:49.493Z,3.77
2018-10-03T03:03:16.927Z,3.33
2018-10-03T03:05:44.178Z,3.33
2018-10-03T03:08:11.463Z,3.90
2018-10-03T03:10:38.934Z,3.87
2018-10-03T03:13:06.696Z,3.60
2018-10-03T03:15:33.919Z,3.40
2018-10-03T03:18:01.254Z,3.93
2018-10-03T03:20:28.629Z,3.83
2018-10-03T03:23:07.942Z,4.33
2018-10-03T03:25:35.052Z,3.37
2018-10-03T03:28:02.295Z,3.80
2018-10-03T03:30:29.512Z,4.10
2018-10-03T03:32:56.610Z,5.93
2018-10-03T03:35:23.721Z,3.50
2018-10-03T03:37:50.918Z,3.30
2018-10-03T03:40:18.012Z,3.40
2018-10-03T03:42:45.095Z,3.63
2018-10-03T03:45:12.232Z,3.47
2018-10-03T03:47:39.334Z,3.40
2018-10-03T03:50:06.481Z,3.50
2018-10-03T03:52:33.696Z,3.40
2018-10-03T03:55:00.800Z,2.97
2018-10-03T03:57:27.888Z,3.63
2018-10-03T03:59:55.033Z,3.37
2018-10-03T04:02:22.136Z,4.10
2018-10-03T04:04:49.278Z,3.33
2018-10-03T04:07:16.423Z,3.50
2018-10-03T04:09:43.512Z,3.47
2018-10-03T04:12:10.612Z,3.70
2018-10-03T04:14:37.749Z,3.80
2018-10-03T04:17:04.853Z,3.37
2018-10-03T04:19:31.983Z,2.97
2018-10-03T04:21:59.126Z,3.83
2018-10-03T04:24:26.228Z,4.43
2018-10-03T04:26:53.313Z,3.90
2018-10-03T04:29:20.448Z,3.77
2018-10-03T04:31:47.537Z,3.73
2018-10-03T04:34:14.634Z,4.37
2018-10-03T04:36:41.855Z,3.87
2018-10-03T04:39:08.966Z,3.70
2018-10-03T04:41:36.468Z,3.90
2018-10-03T04:44:03.684Z,3.23
2018-10-03T04:46:30.819Z,3.57
2018-10-03T04:48:57.970Z,3.67
2018-10-03T04:51:25.081Z,3.20
2018-10-03T04:53:52.276Z,3.20
2018-10-03T04:56:19.373Z,3.43
2018-10-03T04:58:46.524Z,3.43
2018-10-03T05:01:13.619Z,3.40
2018-10-03T05:03:41.402Z,3.93
2018-10-03T05:06:08.887Z,3.40
2018-10-03T05:08:36.468Z,3.27
2018-10-03T05:11:03.575Z,3.40
2018-10-03T05:13:30.891Z,3.60
2018-10-03T05:15:57.994Z,3.13
2018-10-03T05:18:25.124Z,3.80
2018-10-03T05:20:52.300Z,3.60
2018-10-03T05:23:19.396Z,3.57
2018-10-03T05:25:46.556Z,4.33
2018-10-03T05:28:13.693Z,3.27
2018-10-03T05:30:40.781Z,2.93
2018-10-03T05:33:07.916Z,3.10
2018-10-03T05:35:35.109Z,3.50
2018-10-03T05:38:02.324Z,3.60
2018-10-03T05:40:29.679Z,3.83
2018-10-03T05:42:56.855Z,3.03
2018-10-03T05:45:23.977Z,3.77
2018-10-03T05:47:51.314Z,3.60
2018-10-03T05:50:19.176Z,3.43
2018-10-03T05:52:46.400Z,3.57
2018-10-03T05:55:14.150Z,3.33
2018-10-03T05:57:41.461Z,3.73
2018-10-03T06:00:08.698Z,3.63
2018-10-03T06:02:35.949Z,3.50
2018-10-03T06:05:03.132Z,3.00
2018-10-03T06:07:30.336Z,3.17
2018-10-03T06:09:57.452Z,3.70
2018-10-03T06:12:24.625Z,3.60
2018-10-03T06:14:51.896Z,3.70
2018-10-03T06:17:21.164Z,4.00
2018-10-03T06:19:48.423Z,4.23
2018-10-03T06:22:15.704Z,3.10
2018-10-03T06:24:42.830Z,3.70
2018-10-03T06:27:10.107Z,3.67
2018-10-03T06:29:37.280Z,3.73
2018-10-03T06:32:05.160Z,4.30
2018-10-03T06:34:32.363Z,3.63
2018-10-03T06:36:59.477Z,3.60
2018-10-03T06:39:26.648Z,3.33
2018-10-03T06:41:53.868Z,3.53
2018-10-03T06:44:21.001Z,3.57
2018-10-03T06:46:48.163Z,4.07
2018-10-03T06:49:15.319Z,3.37
2018-10-03T06:51:42.512Z,3.43
2018-10-03T06:54:09.608Z,3.90
2018-10-03T06:56:36.753Z,3.33
2018-10-03T06:59:03.879Z,4.43
2018-10-03T07:01:31.061Z,3.37
2018-10-03T07:03:58.403Z,3.80
2018-10-03T07:06:25.657Z,3.83
2018-10-03T07:08:52.834Z,4.13
2018-10-03T07:11:20.061Z,3.30
2018-10-03T07:13:47.200Z,3.17
2018-10-03T07:16:14.341Z,3.53
2018-10-03T07:18:41.567Z,3.53
2018-10-03T07:21:08.881Z,4.10
2018-10-03T07:23:36.014Z,3.60
2018-10-03T07:26:03.230Z,3.43
2018-10-03T07:28:30.368Z,3.97
2018-10-03T07:30:57.533Z,4.13
2018-10-03T07:33:24.696Z,4.73
2018-10-03T07:35:51.820Z,3.10
2018-10-03T07:38:19.075Z,4.10
2018-10-03T07:40:46.360Z,3.47
2018-10-03T07:43:13.585Z,2.90
2018-10-03T07:45:40.988Z,2.83
2018-10-03T07:48:08.203Z,3.27
2018-10-03T07:50:35.337Z,2.97
2018-10-03T07:53:02.598Z,2.70
2018-10-03T07:55:29.770Z,3.00
2018-10-03T07:57:56.946Z,4.20
2018-10-03T08:00:26.732Z,2.87
2018-10-03T08:02:55.306Z,3.33
2018-10-03T08:05:22.502Z,2.77
2018-10-03T08:07:49.752Z,3.30
2018-10-03T08:10:16.915Z,3.33
2018-10-03T08:12:44.315Z,3.50
2018-10-03T08:15:11.540Z,3.13
2018-10-03T08:17:39.180Z,3.27
2018-10-03T08:20:06.662Z,2.60
2018-10-03T08:22:33.863Z,4.60
2018-10-03T08:25:01.137Z,2.57
2018-10-03T08:27:29.124Z,2.67
2018-10-03T08:29:56.236Z,2.30
2018-10-03T08:32:23.558Z,2.80
2018-10-03T08:34:50.749Z,2.50
2018-10-03T08:37:17.880Z,2.67
2018-10-03T08:39:45.044Z,3.00
2018-10-03T08:42:13.317Z,2.97
2018-10-03T08:44:40.416Z,2.03
2018-10-03T08:47:07.588Z,2.60
2018-10-03T08:49:35.032Z,2.50
2018-10-03T08:52:02.290Z,2.57
2018-10-03T08:54:29.528Z,2.83
2018-10-03T08:56:56.694Z,3.63
2018-10-03T08:59:23.849Z,2.60
2018-10-03T09:01:51.288Z,2.33
2018-10-03T09:04:18.727Z,2.93
2018-10-03T09:06:45.936Z,2.10
2018-10-03T09:09:13.176Z,5.33
2018-10-03T09:11:40.840Z,2.40
2018-10-03T09:14:08.024Z,2.33
2018-10-03T09:16:35.352Z,2.30
2018-10-03T09:19:02.634Z,2.23
2018-10-03T09:21:29.980Z,2.10
2018-10-03T09:23:57.201Z,1.93
2018-10-03T09:26:24.362Z,2.00
2018-10-03T09:28:51.568Z,1.93
2018-10-03T09:31:18.843Z,2.10
2018-10-03T09:33:46.135Z,2.17
2018-10-03T09:36:13.588Z,1.97
2018-10-03T09:38:40.913Z,2.07
2018-10-03T09:41:08.109Z,2.07
2018-10-03T09:43:35.522Z,2.47
2018-10-03T09:46:02.740Z,2.33
2018-10-03T09:48:31.568Z,2.10
2018-10-03T09:50:58.889Z,2.33
2018-10-03T09:53:26.372Z,2.20
2018-10-03T09:55:53.609Z,2.23
2018-10-03T09:58:20.740Z,2.70
2018-10-03T10:00:53.883Z,2.00
2018-10-03T10:03:20.984Z,2.27
2018-10-03T10:05:48.111Z,2.20
2018-10-03T10:08:15.398Z,2.17
2018-10-03T10:10:42.507Z,2.27
2018-10-03T10:13:09.614Z,2.40
2018-10-03T10:15:36.792Z,1.93
2018-10-03T10:18:03.940Z,2.40
2018-10-03T10:20:31.063Z,2.50
2018-10-03T10:22:58.303Z,2.43
2018-10-03T10:25:25.495Z,2.40
2018-10-03T10:27:52.814Z,2.50
2018-10-03T10:30:20.321Z,2.10
2018-10-03T10:32:48.366Z,2.10
2018-10-03T10:35:15.437Z,2.60
2018-10-03T10:37:42.702Z,2.03
2018-10-03T10:40:09.875Z,2.10
2018-10-03T10:42:36.944Z,2.10
2018-10-03T10:45:04.468Z,2.33
2018-10-03T10:47:31.582Z,1.80
2018-10-03T10:49:58.665Z,2.43
2018-10-03T10:52:26.083Z,1.90
2018-10-03T10:54:53.240Z,2.47
2018-10-03T10:57:20.347Z,2.30
2018-10-03T10:59:47.542Z,2.23
2018-10-03T11:02:14.692Z,2.37
2018-10-03T11:04:41.828Z,2.00
2018-10-03T11:07:08.955Z,2.20
2018-10-03T11:09:36.211Z,2.07
2018-10-03T11:12:03.660Z,2.10
2018-10-03T11:14:31.470Z,2.10
2018-10-03T11:16:58.706Z,2.10
2018-10-03T11:19:25.801Z,1.60
2018-10-03T11:21:53.364Z,2.10
2018-10-03T11:24:20.551Z,2.30
2018-10-03T11:26:47.720Z,1.70
2018-10-03T11:29:14.932Z,2.00
2018-10-03T11:31:42.053Z,1.83
2018-10-03T11:34:09.250Z,2.30
2018-10-03T11:36:36.424Z,1.77
2018-10-03T11:39:05.267Z,2.30
2018-10-03T11:41:32.469Z,2.20
2018-10-03T11:43:59.733Z,2.17
2018-10-03T11:46:26.839Z,2.27
2018-10-03T11:48:54.105Z,2.40
2018-10-03T11:51:21.357Z,2.60
2018-10-03T11:53:48.521Z,2.50
2018-10-03T11:56:15.803Z,2.40
2018-10-03T11:58:43.215Z,2.23
2018-10-03T12:01:14.154Z,2.23
2018-10-03T12:03:46.342Z,2.10
2018-10-03T12:06:16.072Z,2.00
2018-10-03T12:08:43.301Z,2.60
2018-10-03T12:11:13.883Z,2.40
2018-10-03T12:13:46.275Z,3.00
2018-10-03T12:16:14.052Z,2.23
2018-10-03T12:18:41.283Z,2.60
2018-10-03T12:21:08.442Z,2.20
2018-10-03T12:23:35.702Z,1.90
2018-10-03T12:26:03.332Z,2.30
2018-10-03T12:28:31.014Z,2.50
2018-10-03T12:30:58.218Z,2.50
2018-10-03T12:33:25.432Z,1.90
2018-10-03T12:35:52.536Z,2.53
2018-10-03T12:38:19.822Z,2.27
2018-10-03T12:40:46.988Z,1.87
2018-10-03T12:43:14.246Z,1.87
2018-10-03T12:45:41.512Z,1.50
2018-10-03T12:48:08.636Z,1.53
2018-10-03T12:50:35.837Z,2.00
2018-10-03T12:53:03.028Z,1.60
2018-10-03T12:55:30.660Z,1.70
2018-10-03T12:57:57.953Z,1.80
2018-10-03T13:00:29.352Z,2.07
2018-10-03T13:02:57.153Z,1.80
2018-10-03T13:05:24.248Z,2.07
2018-10-03T13:07:51.389Z,1.50
2018-10-03T13:10:18.644Z,1.37
2018-10-03T13:12:46.229Z,1.63
2018-10-03T13:15:13.473Z,1.20
2018-10-03T13:17:40.648Z,1.40
2018-10-03T13:20:07.941Z,1.40
2018-10-03T13:22:35.156Z,1.70
2018-10-03T13:25:02.365Z,1.30
2018-10-03T13:27:29.500Z,1.57
2018-10-03T13:29:56.877Z,1.70
2018-10-03T13:32:23.991Z,1.43
2018-10-03T13:34:51.100Z,1.40
2018-10-03T13:37:18.350Z,1.47
2018-10-03T13:39:45.529Z,1.30
2018-10-03T13:42:12.674Z,1.63
2018-10-03T13:44:39.848Z,1.50
2018-10-03T13:47:06.993Z,1.67
2018-10-03T13:49:34.109Z,1.47
2018-10-03T13:52:01.317Z,1.73
2018-10-03T13:54:28.449Z,1.57
2018-10-03T13:56:55.634Z,1.50
2018-10-03T13:59:22.977Z,1.50
2018-10-03T14:01:50.155Z,1.40
2018-10-03T14:04:17.253Z,1.30
2018-10-03T14:06:44.426Z,1.70
2018-10-03T14:09:11.583Z,1.67
2018-10-03T14:11:38.707Z,1.60
2018-10-03T14:14:05.894Z,2.47
2018-10-03T14:16:33.077Z,1.30
2018-10-03T14:19:00.221Z,1.70
2018-10-03T14:21:27.432Z,1.47
2018-10-03T14:23:54.563Z,1.43
2018-10-03T14:26:21.792Z,1.30
2018-10-03T14:28:48.996Z,1.60
2018-10-03T14:31:16.189Z,2.33
2018-10-03T14:33:43.349Z,1.77
2018-10-03T14:36:10.533Z,2.07
2018-10-03T14:38:37.649Z,1.90
2018-10-03T14:41:04.763Z,1.60
2018-10-03T14:43:31.960Z,1.47
2018-10-03T14:45:59.109Z,1.50
2018-10-03T14:48:26.355Z,1.73
2018-10-03T14:50:54.526Z,1.20
2018-10-03T14:53:21.712Z,1.40
2018-10-03T14:55:48.841Z,1.70
2018-10-03T14:58:16.095Z,1.50
2018-10-03T15:00:43.206Z,1.50
2018-10-03T15:03:10.408Z,1.83
2018-10-03T15:05:37.816Z,1.60
2018-10-03T15:08:04.993Z,1.90
2018-10-03T15:10:32.125Z,1.63
2018-10-03T15:13:00.176Z,1.30
2018-10-03T15:15:27.377Z,1.80
2018-10-03T15:17:55.210Z,1.53
2018-10-03T15:20:22.406Z,1.60
2018-10-03T15:22:49.621Z,1.90
2018-10-03T15:25:16.785Z,1.40
2018-10-03T15:27:43.975Z,2.37
2018-10-03T15:30:11.223Z,3.77
2018-10-03T15:32:38.444Z,3.13
2018-10-03T15:35:05.810Z,2.10
2018-10-03T15:37:32.993Z,3.37
2018-10-03T15:40:00.130Z,4.80
2018-10-03T15:42:27.330Z,3.17
2018-10-03T15:44:54.644Z,2.20
2018-10-03T15:47:21.765Z,1.83
2018-10-03T15:49:49.041Z,1.87
2018-10-03T15:52:16.209Z,2.20
2018-10-03T15:54:44.185Z,2.10
2018-10-03T15:57:11.390Z,2.03
2018-10-03T15:59:39.383Z,3.00
2018-10-03T16:02:06.788Z,2.73
2018-10-03T16:04:34.425Z,2.20
2018-10-03T16:07:01.656Z,2.17
2018-10-03T16:09:28.787Z,2.10
2018-10-03T16:11:55.989Z,2.07
2018-10-03T16:14:23.169Z,1.90
2018-10-03T16:16:50.429Z,1.60
2018-10-03T16:19:17.724Z,1.77
2018-10-03T16:21:44.863Z,1.40
2018-10-03T16:24:12.200Z,1.77
2018-10-03T16:26:39.396Z,1.63
2018-10-03T16:29:06.533Z,1.63
2018-10-03T16:31:33.659Z,1.80
2018-10-03T16:34:01.795Z,2.10
2018-10-03T16:36:28.928Z,1.63
2018-10-03T16:38:57.105Z,1.30
2018-10-03T16:41:24.254Z,1.87
2018-10-03T16:43:51.452Z,1.53
2018-10-03T16:46:18.586Z,1.70
2018-10-03T16:48:46.708Z,1.60
2018-10-03T16:51:13.853Z,1.70
2018-10-03T16:53:41.093Z,1.60
2018-10-03T16:56:08.276Z,1.67
2018-10-03T16:58:35.409Z,1.53
2018-10-03T17:01:02.532Z,1.80
2018-10-03T17:03:29.753Z,1.80
2018-10-03T17:05:56.880Z,1.60
2018-10-03T17:08:23.996Z,1.50
2018-10-03T17:10:51.168Z,2.40
2018-10-03T17:13:18.385Z,2.17
2018-10-03T17:15:45.618Z,2.20
2018-10-03T17:18:12.815Z,1.83
2018-10-03T17:20:40.025Z,1.93
2018-10-03T17:23:07.206Z,1.67
2018-10-03T17:25:34.372Z,2.10
2018-10-03T17:28:01.505Z,1.73
2018-10-03T17:30:28.623Z,2.03
2018-10-03T17:32:55.809Z,1.67
2018-10-03T17:35:23.145Z,2.00
2018-10-03T17:37:50.527Z,1.80
2018-10-03T17:40:17.704Z,1.40
2018-10-03T17:42:44.846Z,1.80
2018-10-03T17:45:11.976Z,1.93
2018-10-03T17:47:39.165Z,1.70
2018-10-03T17:50:06.384Z,2.00
2018-10-03T17:52:33.600Z,1.40
2018-10-03T17:55:00.776Z,1.60
2018-10-03T17:57:28.025Z,1.87
2018-10-03T17:59:55.240Z,1.63
2018-10-03T18:02:22.480Z,1.70
2018-10-03T18:04:49.655Z,1.67
2018-10-03T18:07:16.750Z,1.97
2018-10-03T18:09:43.926Z,1.63
2018-10-03T18:12:11.064Z,1.90
2018-10-03T18:14:38.195Z,1.80
2018-10-03T18:17:09.829Z,2.50
2018-10-03T18:19:37.038Z,1.80
2018-10-03T18:22:04.623Z,2.00
2018-10-03T18:24:32.272Z,2.10
2018-10-03T18:27:02.578Z,2.50
2018-10-03T18:29:30.316Z,1.97
2018-10-03T18:31:57.496Z,2.17
2018-10-03T18:34:24.617Z,1.63
2018-10-03T18:36:52.123Z,1.67
2018-10-03T18:39:19.448Z,1.57
2018-10-03T18:41:46.966Z,1.90
2018-10-03T18:44:14.068Z,1.97
2018-10-03T18:46:41.445Z,1.67
2018-10-03T18:49:08.626Z,1.50
2018-10-03T18:51:35.732Z,1.63
2018-10-03T18:54:02.966Z,1.60
2018-10-03T18:56:30.079Z,1.63
2018-10-03T18:58:57.708Z,1.70
2018-10-03T19:01:28.196Z,1.90
2018-10-03T19:03:59.233Z,1.60
2018-10-03T19:06:29.746Z,2.20
2018-10-03T19:08:58.932Z,1.60
2018-10-03T19:11:26.104Z,1.60
2018-10-03T19:13:53.826Z,1.77
2018-10-03T19:16:21.164Z,1.67
2018-10-03T19:18:48.860Z,1.47
2018-10-03T19:21:16.225Z,1.80
2018-10-03T19:23:43.362Z,1.97
2018-10-03T19:26:10.820Z,1.70
2018-10-03T19:28:38.069Z,1.57
2018-10-03T19:31:05.173Z,2.00
2018-10-03T19:33:32.285Z,1.80
2018-10-03T19:35:59.445Z,1.80
2018-10-03T19:38:26.676Z,1.40
2018-10-03T19:42:25.953Z,1.83
2018-10-03T19:44:53.594Z,1.80
2018-10-03T19:47:20.815Z,1.90
2018-10-03T19:49:48.036Z,1.80
2018-10-03T19:52:15.152Z,1.70
2018-10-03T19:54:42.303Z,1.70
2018-10-03T19:57:09.625Z,1.80
2018-10-03T19:59:36.720Z,1.63
2018-10-03T20:02:03.861Z,2.10
2018-10-03T20:04:31.098Z,1.90
2018-10-03T20:06:58.241Z,1.93
2018-10-03T20:09:25.474Z,2.10
2018-10-03T20:11:52.740Z,1.87
2018-10-03T20:14:20.101Z,1.70
2018-10-03T20:16:47.213Z,2.07
2018-10-03T20:19:14.529Z,1.93
2018-10-03T20:21:41.779Z,2.07
2018-10-03T20:24:08.880Z,1.80
2018-10-03T20:26:36.117Z,1.87
2018-10-03T20:29:03.196Z,1.50
2018-10-03T20:31:30.329Z,1.70
2018-10-03T20:33:57.506Z,1.80
2018-10-03T20:36:24.619Z,1.90
2018-10-03T20:38:51.782Z,1.87
2018-10-03T20:41:18.958Z,2.13
2018-10-03T20:43:46.085Z,2.10
2018-10-03T20:46:13.196Z,2.10
2018-10-03T20:48:40.351Z,1.80
2018-10-03T20:51:07.569Z,1.43
2018-10-03T20:53:34.696Z,1.90
2018-10-03T20:56:01.961Z,1.57
2018-10-03T20:58:29.148Z,1.60
2018-10-03T21:00:56.301Z,1.63
2018-10-03T21:03:23.457Z,2.17
2018-10-03T21:05:50.572Z,1.80
2018-10-03T21:08:17.697Z,1.80
2018-10-03T21:10:44.872Z,1.97
2018-10-03T21:13:11.982Z,2.00
2018-10-03T21:15:39.080Z,2.00
2018-10-03T21:18:06.313Z,2.20
2018-10-03T21:20:33.459Z,2.20
2018-10-03T21:23:00.553Z,1.80
2018-10-03T21:25:27.737Z,2.00
2018-10-03T21:27:54.848Z,2.10
2018-10-03T21:30:21.964Z,2.03
2018-10-03T21:32:49.273Z,2.20
2018-10-03T21:35:16.381Z,2.43
2018-10-03T21:37:43.541Z,1.97
2018-10-03T21:40:10.756Z,2.73
2018-10-03T21:42:37.882Z,2.00
2018-10-03T21:45:05.359Z,1.97
2018-10-03T21:47:32.518Z,2.10
2018-10-03T21:49:59.648Z,2.60
2018-10-03T21:52:26.760Z,2.23
2018-10-03T21:54:53.919Z,2.03
2018-10-03T21:57:21.089Z,1.83
2018-10-03T21:59:48.212Z,1.70
2018-10-03T22:02:15.449Z,2.17
2018-10-03T22:04:42.560Z,2.00
2018-10-03T22:07:09.720Z,1.87
2018-10-03T22:09:36.890Z,1.80
2018-10-03T22:12:04.013Z,1.90
2018-10-03T22:14:31.132Z,2.10
2018-10-03T22:16:58.334Z,2.03
2018-10-03T22:19:25.451Z,2.23
2018-10-03T22:21:52.593Z,1.90
2018-10-03T22:24:19.785Z,2.10
2018-10-03T22:26:46.914Z,1.77
2018-10-03T22:29:14.034Z,2.00
2018-10-03T22:31:42.021Z,2.10
2018-10-03T22:34:09.244Z,2.00
2018-10-03T22:36:36.360Z,2.60
2018-10-03T22:39:04.369Z,1.70
2018-10-03T22:41:31.553Z,2.00
2018-10-03T22:43:58.724Z,1.90
2018-10-03T22:46:25.896Z,1.57
2018-10-03T22:48:53.000Z,1.80
2018-10-03T22:51:20.122Z,1.90
2018-10-03T22:53:47.344Z,1.70
2018-10-03T22:56:14.473Z,2.20
2018-10-03T22:58:41.621Z,1.80
2018-10-03T23:01:08.901Z,2.27
2018-10-03T23:03:36.131Z,2.10
2018-10-03T23:06:03.256Z,2.17
2018-10-03T23:08:30.442Z,2.10
2018-10-03T23:10:57.577Z,2.27
2018-10-03T23:13:24.717Z,1.90
2018-10-03T23:15:52.040Z,2.20
2018-10-03T23:18:19.220Z,1.80
2018-10-03T23:20:46.336Z,2.10
2018-10-03T23:23:13.530Z,2.47
2018-10-03T23:25:40.679Z,2.03
2018-10-03T23:28:07.804Z,1.97
2018-10-03T23:30:34.958Z,2.00
2018-10-03T23:33:02.100Z,2.30
2018-10-03T23:35:29.310Z,1.83
2018-10-03T23:37:56.468Z,2.20
2018-10-03T23:40:23.631Z,1.80
2018-10-03T23:42:50.836Z,2.50
2018-10-03T23:45:18.015Z,2.17
2018-10-03T23:47:45.125Z,1.80
2018-10-03T23:50:12.244Z,1.77
2018-10-03T23:52:39.486Z,2.13
2018-10-03T23:55:06.631Z,2.03
2018-10-03T23:57:33.791Z,1.83
